Time;durP1;ratioP1;P1;durP2;ratioP2;P2;SDS_P1;SDS_P2;PMS_P1;PMS_P2;Temp;Humidity;BMP_temperature;BMP_pressure;BME280_temperature;BME280_humidity;BME280_pressure;Samples;Min_cycle;Max_cycle;Signal;HPM_P1;HPM_P2
2023/06/05 00:02:41;;;;;;;2.78;1.40;;;23.40;77.30;;;;;;10945322;32;20066;-76
2023/06/05 00:08:44;;;;;;;2.15;1.50;;;23.00;77.80;;;;;;10944919;32;20049;-74
2023/06/05 00:14:46;;;;;;;2.65;1.35;;;22.70;78.50;;;;;;10938543;32;20042;-74
2023/06/05 00:20:48;;;;;;;2.15;1.30;;;22.50;78.90;;;;;;10945111;32;20050;-74
2023/06/05 00:26:50;;;;;;;3.97;1.73;;;22.50;79.60;;;;;;10943931;32;20028;-73
2023/06/05 00:32:52;;;;;;;2.42;1.40;;;22.50;79.80;;;;;;10941480;32;20388;-72
2023/06/05 00:38:54;;;;;;;4.90;1.17;;;22.60;80.20;;;;;;10926686;32;20065;-73
2023/06/05 00:44:56;;;;;;;2.03;1.02;;;22.70;80.00;;;;;;10943643;32;20054;-73
2023/06/05 00:50:59;;;;;;;4.57;1.80;;;22.80;79.90;;;;;;10943350;32;20027;-73
2023/06/05 00:57:01;;;;;;;2.62;1.87;;;22.60;80.00;;;;;;10940976;32;20077;-74
2023/06/05 01:03:04;;;;;;;3.53;2.20;;;22.50;80.40;;;;;;10942255;32;20049;-74
2023/06/05 01:09:06;;;;;;;3.08;1.30;;;22.50;80.90;;;;;;10942554;32;20015;-74
2023/06/05 01:15:10;;;;;;;2.92;1.87;;;22.50;81.20;;;;;;10942629;32;20027;-74
2023/06/05 01:21:13;;;;;;;2.30;1.42;;;22.30;81.30;;;;;;10942076;32;20015;-76
2023/06/05 01:27:30;;;;;;;4.00;2.72;;;22.10;81.50;;;;;;10941709;32;20026;-75
2023/06/05 01:33:49;;;;;;;6.62;4.28;;;22.00;82.00;;;;;;10942844;32;20027;-74
2023/06/05 01:39:52;;;;;;;3.47;2.08;;;22.00;82.10;;;;;;10942461;32;20047;-73
2023/06/05 01:45:58;;;;;;;1.73;1.17;;;22.00;81.80;;;;;;10941632;32;20018;-74
2023/06/05 01:52:00;;;;;;;3.20;1.15;;;21.90;81.60;;;;;;10943157;32;20411;-73
2023/06/05 01:58:03;;;;;;;4.50;1.62;;;21.90;81.40;;;;;;10942598;32;20019;-72
2023/06/05 02:04:05;;;;;;;6.00;1.55;;;21.80;81.50;;;;;;10940953;32;20049;-72
2023/06/05 02:10:08;;;;;;;3.37;1.55;;;21.90;81.30;;;;;;10942633;32;20015;-73
2023/06/05 02:16:11;;;;;;;6.80;1.73;;;21.90;81.10;;;;;;10934480;32;20031;-72
2023/06/05 02:22:13;;;;;;;1.87;1.30;;;21.80;81.10;;;;;;10949385;32;20015;-73
2023/06/05 02:28:16;;;;;;;3.42;1.92;;;21.70;80.90;;;;;;10931374;32;20043;-73
2023/06/05 02:34:19;;;;;;;2.55;1.70;;;21.30;80.60;;;;;;10948958;32;20045;-72
2023/06/05 02:40:22;;;;;;;2.37;1.37;;;21.30;81.10;;;;;;10947436;32;20046;-73
2023/06/05 02:46:27;;;;;;;3.20;2.08;;;21.40;81.50;;;;;;10948012;32;20431;-72
2023/06/05 02:52:32;;;;;;;3.08;1.83;;;21.70;81.40;;;;;;10931624;32;20439;-73
2023/06/05 02:58:34;;;;;;;1.60;1.25;;;21.80;81.50;;;;;;10946245;32;20023;-73
2023/06/05 03:04:39;;;;;;;3.50;1.90;;;21.80;81.50;;;;;;10946704;32;20054;-73
2023/06/05 03:10:41;;;;;;;2.60;1.48;;;21.80;81.90;;;;;;10946465;32;20038;-72
2023/06/05 03:16:44;;;;;;;3.60;1.27;;;21.80;81.80;;;;;;10946240;32;20023;-74
2023/06/05 03:22:47;;;;;;;4.70;1.20;;;21.80;82.20;;;;;;10941595;32;20336;-72
2023/06/05 03:28:50;;;;;;;2.65;1.70;;;21.80;82.30;;;;;;10931641;32;20405;-72
2023/06/05 03:34:52;;;;;;;4.55;1.58;;;21.90;82.20;;;;;;10945312;32;20055;-72
2023/06/05 03:40:54;;;;;;;3.55;1.12;;;21.90;82.30;;;;;;10945176;32;20026;-72
2023/06/05 03:46:56;;;;;;;6.03;1.55;;;21.90;82.20;;;;;;10945129;32;20027;-74
2023/06/05 03:53:03;;;;;;;3.87;2.28;;;21.90;82.20;;;;;;10945083;32;20037;-74
2023/06/05 03:59:19;;;;;;;6.35;4.18;;;21.80;82.20;;;;;;10940490;32;20398;-73
2023/06/05 04:05:21;;;;;;;6.50;3.65;;;21.20;82.30;;;;;;10944555;32;20059;-74
2023/06/05 04:11:26;;;;;;;2.87;1.50;;;20.80;82.80;;;;;;10944403;32;20356;-75
2023/06/05 04:17:28;;;;;;;3.83;2.03;;;21.00;83.40;;;;;;10944094;32;20030;-76
2023/06/05 04:23:30;;;;;;;5.40;3.28;;;21.20;83.10;;;;;;10943028;32;20023;-74
2023/06/05 04:29:35;;;;;;;2.85;1.90;;;21.30;83.10;;;;;;10943684;32;20053;-73
2023/06/05 04:35:39;;;;;;;6.62;3.05;;;21.50;83.00;;;;;;10942810;32;20018;-74
2023/06/05 04:41:45;;;;;;;7.40;3.10;;;21.60;83.10;;;;;;10941932;32;20333;-74
2023/06/05 04:47:48;;;;;;;16.83;4.47;;;21.60;83.20;;;;;;10943073;32;20061;-74
2023/06/05 04:53:52;;;;;;;3.37;2.28;;;21.60;83.30;;;;;;10942788;32;20031;-74
2023/06/05 04:59:56;;;;;;;2.33;1.50;;;21.70;83.00;;;;;;10942705;32;20046;-73
2023/06/05 05:05:58;;;;;;;2.15;1.48;;;21.70;83.00;;;;;;10928740;32;20038;-73
2023/06/05 05:12:01;;;;;;;2.12;1.50;;;21.60;82.80;;;;;;10928146;32;20349;-73
2023/06/05 05:18:03;;;;;;;1.70;0.98;;;21.70;82.60;;;;;;10942272;32;20019;-73
2023/06/05 05:24:07;;;;;;;2.28;1.10;;;21.70;83.00;;;;;;10941985;32;20019;-73
2023/06/05 05:30:09;;;;;;;2.22;1.60;;;21.70;83.10;;;;;;10940509;32;20431;-74
2023/06/05 05:36:14;;;;;;;3.00;2.00;;;21.70;83.10;;;;;;10938331;32;20066;-73
2023/06/05 05:42:17;;;;;;;6.20;1.55;;;21.60;83.20;;;;;;10940928;32;20027;-73
2023/06/05 05:48:19;;;;;;;2.65;1.37;;;21.50;83.70;;;;;;10947958;32;20019;-73
2023/06/05 05:54:26;;;;;;;2.60;1.87;;;21.50;83.80;;;;;;10935043;32;20073;-73
2023/06/05 06:00:29;;;;;;;3.97;1.92;;;21.60;83.40;;;;;;10948939;32;20049;-73
2023/06/05 06:06:37;;;;;;;1.77;1.20;;;21.50;83.30;;;;;;10948489;32;20402;-73
2023/06/05 06:12:45;;;;;;;1.12;1.02;;;21.40;83.30;;;;;;10934127;32;20073;-72
2023/06/05 06:18:47;;;;;;;5.22;1.60;;;21.50;83.30;;;;;;10947891;32;20015;-72
2023/06/05 06:24:50;;;;;;;1.85;1.15;;;21.60;83.30;;;;;;10947803;32;20502;-72
2023/06/05 06:30:52;;;;;;;3.50;2.25;;;21.60;83.20;;;;;;10947728;32;20085;-73
2023/06/05 06:37:06;;;;;;;5.25;1.90;;;21.60;83.20;;;;;;10947628;32;20019;-73
2023/06/05 06:43:08;;;;;;;2.67;2.00;;;21.60;83.30;;;;;;10947531;32;20403;-73
2023/06/05 06:49:10;;;;;;;2.42;1.62;;;21.50;83.80;;;;;;10947424;32;20338;-73
2023/06/05 06:55:12;;;;;;;3.53;2.03;;;21.40;83.80;;;;;;10946682;32;20059;-74
2023/06/05 07:01:15;;;;;;;3.17;2.20;;;21.50;83.70;;;;;;10946825;32;20015;-73
2023/06/05 07:07:18;;;;;;;4.00;2.30;;;21.50;83.80;;;;;;10946728;32;20019;-73
2023/06/05 07:13:20;;;;;;;2.90;1.92;;;21.50;83.80;;;;;;10932734;32;20035;-74
2023/06/05 07:20:06;;;;;;;3.60;1.95;;;21.50;83.90;;;;;;10932785;32;20346;-73
2023/06/05 07:26:08;;;;;;;1.77;1.15;;;21.50;84.00;;;;;;10962532;27;20397;-73
2023/06/05 07:32:10;;;;;;;4.57;2.50;;;21.40;84.20;;;;;;10969520;32;20030;-74
2023/06/05 07:38:12;;;;;;;7.45;3.03;;;21.40;84.30;;;;;;10983222;32;20368;-74
2023/06/05 07:44:16;;;;;;;3.62;2.42;;;21.40;84.10;;;;;;10983018;32;20042;-73
2023/06/05 07:50:18;;;;;;;4.70;3.03;;;21.20;83.90;;;;;;10982785;32;20019;-73
2023/06/05 07:56:23;;;;;;;3.40;2.42;;;21.00;84.40;;;;;;10982676;32;20423;-73
2023/06/05 08:02:25;;;;;;;10.80;3.22;;;21.10;84.90;;;;;;10982274;32;20037;-71
2023/06/05 08:08:27;;;;;;;6.07;3.37;;;21.20;84.60;;;;;;10981299;32;20018;-72
2023/06/05 08:14:29;;;;;;;6.10;2.95;;;21.10;84.60;;;;;;10981818;32;20026;-72
2023/06/05 08:20:31;;;;;;;5.00;3.00;;;21.00;84.80;;;;;;10980801;32;20436;-72
2023/06/05 08:26:34;;;;;;;3.37;2.50;;;21.30;85.40;;;;;;10966238;32;20015;-71
2023/06/05 08:32:37;;;;;;;5.07;3.03;;;21.50;85.10;;;;;;10980737;32;20027;-73
2023/06/05 08:38:39;;;;;;;4.90;2.95;;;21.50;85.30;;;;;;10980980;32;20049;-72
2023/06/05 08:44:41;;;;;;;3.42;2.45;;;21.50;85.40;;;;;;10979524;32;20022;-72
2023/06/05 08:50:57;;;;;;;4.10;2.62;;;21.50;85.10;;;;;;10978787;32;20348;-72
2023/06/05 08:57:02;;;;;;;3.00;2.10;;;21.60;85.20;;;;;;10978315;32;20489;-72
2023/06/05 09:03:05;;;;;;;5.12;2.30;;;21.60;85.40;;;;;;10976203;32;20344;-73
2023/06/05 09:09:10;;;;;;;3.53;2.58;;;21.70;85.10;;;;;;10980147;32;20015;-72
2023/06/05 09:15:27;;;;;;;6.40;2.90;;;21.70;84.70;;;;;;10979774;32;20050;-71
2023/06/05 09:21:32;;;;;;;3.47;2.37;;;21.80;84.20;;;;;;10961911;32;20011;-71
2023/06/05 09:27:35;;;;;;;5.22;2.80;;;21.80;84.20;;;;;;10979370;32;20045;-71
2023/06/05 09:33:38;;;;;;;3.72;1.98;;;22.10;84.50;;;;;;10966019;32;20041;-72
2023/06/05 09:39:45;;;;;;;3.35;1.92;;;22.10;83.70;;;;;;10965353;32;20061;-74
2023/06/05 09:45:47;;;;;;;5.18;2.12;;;22.00;83.10;;;;;;10979243;32;20011;-72
2023/06/05 09:51:49;;;;;;;2.15;1.45;;;21.80;83.10;;;;;;10978973;32;20380;-70
2023/06/05 09:57:54;;;;;;;2.45;1.77;;;22.00;83.30;;;;;;10979055;32;20032;-74
2023/06/05 10:03:58;;;;;;;5.35;2.15;;;22.00;83.40;;;;;;10974835;32;20037;-70
2023/06/05 10:10:02;;;;;;;3.10;1.90;;;22.00;83.90;;;;;;10965302;32;20011;-71
2023/06/05 10:16:04;;;;;;;2.80;1.40;;;22.10;83.90;;;;;;10965353;32;20049;-72
2023/06/05 10:22:06;;;;;;;1.48;0.98;;;22.30;83.70;;;;;;10964684;32;20026;-71
2023/06/05 10:28:24;;;;;;;2.33;1.73;;;22.30;83.40;;;;;;10974537;32;20567;-73
2023/06/05 10:34:54;;;;;;;1.90;1.23;;;22.50;83.60;;;;;;10982280;32;20019;-70
2023/06/05 10:41:01;;;;;;;1.67;0.93;;;22.50;83.10;;;;;;10985337;32;20019;-71
2023/06/05 10:47:34;;;;;;;1.58;0.98;;;22.60;83.40;;;;;;10966647;32;20034;-73
2023/06/05 10:53:45;;;;;;;1.83;1.00;;;22.60;82.80;;;;;;10964752;32;20022;-70
2023/06/05 11:00:06;;;;;;;1.25;0.88;;;22.60;82.40;;;;;;10966587;32;20046;-72
2023/06/05 11:06:14;;;;;;;1.87;1.12;;;22.60;82.50;;;;;;10984068;32;20015;-71
2023/06/05 11:12:16;;;;;;;2.17;1.52;;;22.80;82.50;;;;;;10983593;32;20022;-71
2023/06/05 11:18:33;;;;;;;1.73;1.20;;;23.00;81.90;;;;;;10981148;32;20340;-71
2023/06/05 11:24:36;;;;;;;1.90;1.40;;;23.20;80.90;;;;;;10982072;32;20030;-73
2023/06/05 11:30:43;;;;;;;2.12;1.33;;;23.30;80.60;;;;;;10983788;32;20022;-73
2023/06/05 11:36:45;;;;;;;2.58;1.40;;;23.30;80.10;;;;;;10983234;32;20026;-73
2023/06/05 11:42:47;;;;;;;4.05;1.50;;;23.30;80.10;;;;;;10982826;32;20015;-71
2023/06/05 11:48:49;;;;;;;1.73;1.42;;;23.30;79.90;;;;;;10982869;32;20333;-72
2023/06/05 11:55:05;;;;;;;0.93;0.73;;;23.30;80.80;;;;;;10956277;32;20065;-71
2023/06/05 12:01:23;;;;;;;2.53;1.60;;;23.60;80.40;;;;;;10982435;32;20045;-73
2023/06/05 12:07:28;;;;;;;0.77;0.70;;;23.80;80.60;;;;;;10982181;32;20041;-71
2023/06/05 12:13:56;;;;;;;2.75;1.80;;;23.70;79.40;;;;;;10981814;32;20038;-72
2023/06/05 12:19:59;;;;;;;3.20;1.40;;;23.70;79.10;;;;;;10981695;32;20035;-73
2023/06/05 12:26:03;;;;;;;3.80;2.15;;;23.70;79.30;;;;;;10981398;32;20041;-71
2023/06/05 12:32:23;;;;;;;1.52;0.95;;;23.90;78.50;;;;;;10981215;32;20344;-73
2023/06/05 12:38:28;;;;;;;2.17;1.37;;;24.10;78.30;;;;;;10981145;32;20037;-71
2023/06/05 12:44:30;;;;;;;1.48;1.12;;;24.40;77.90;;;;;;10976793;32;20385;-70
2023/06/05 12:50:33;;;;;;;2.40;1.12;;;24.60;77.40;;;;;;10981128;32;20054;-72
2023/06/05 12:56:35;;;;;;;3.35;1.70;;;24.50;76.90;;;;;;10979321;32;20215;-70
2023/06/05 13:02:37;;;;;;;3.90;1.33;;;24.50;77.60;;;;;;10977152;32;20026;-71
2023/06/05 13:08:39;;;;;;;2.25;1.58;;;24.40;78.40;;;;;;10976253;32;20038;-70
2023/06/05 13:14:42;;;;;;;3.28;1.67;;;24.30;77.30;;;;;;10978198;32;20049;-71
2023/06/05 13:20:45;;;;;;;3.20;2.03;;;24.20;77.00;;;;;;10962047;32;20034;-72
2023/06/05 13:26:47;;;;;;;2.67;1.75;;;24.20;77.40;;;;;;10965782;32;20034;-72
2023/06/05 13:32:50;;;;;;;3.10;1.80;;;24.20;77.40;;;;;;10979488;32;20381;-72
2023/06/05 13:38:52;;;;;;;1.92;1.30;;;24.00;77.20;;;;;;10979404;32;20053;-71
2023/06/05 13:44:55;;;;;;;3.17;1.85;;;24.20;77.00;;;;;;10952842;32;20034;-72
2023/06/05 13:50:57;;;;;;;3.30;1.83;;;24.50;76.10;;;;;;10979073;32;20023;-73
2023/06/05 13:57:00;;;;;;;5.97;1.90;;;24.80;75.80;;;;;;10963336;32;20057;-73
2023/06/05 14:03:03;;;;;;;2.42;1.45;;;24.90;75.30;;;;;;10978956;32;20077;-73
2023/06/05 14:09:05;;;;;;;2.60;1.30;;;24.80;76.10;;;;;;10984731;32;20019;-71
2023/06/05 14:15:08;;;;;;;3.12;1.60;;;24.60;76.10;;;;;;10986492;32;20052;-71
2023/06/05 14:21:10;;;;;;;2.62;1.42;;;24.60;77.60;;;;;;10986185;32;20294;-72
2023/06/05 14:27:13;;;;;;;1.95;0.95;;;24.60;77.80;;;;;;10972103;32;20034;-72
2023/06/05 14:33:18;;;;;;;2.42;1.50;;;24.60;77.60;;;;;;10985685;32;20392;-71
2023/06/05 14:39:22;;;;;;;3.67;1.77;;;24.70;76.60;;;;;;10971760;32;20176;-71
2023/06/05 14:45:24;;;;;;;1.85;1.30;;;24.70;76.60;;;;;;10985299;32;20104;-71
2023/06/05 14:51:26;;;;;;;2.12;1.10;;;24.80;76.60;;;;;;10985004;32;20360;-71
2023/06/05 14:57:47;;;;;;;2.67;1.23;;;24.80;76.50;;;;;;10984517;32;20045;-71
2023/06/05 15:04:28;;;;;;;2.30;1.27;;;24.80;75.40;;;;;;10975790;32;20328;-71
2023/06/05 15:10:31;;;;;;;2.25;1.10;;;24.70;75.80;;;;;;10984666;32;20332;-71
2023/06/05 15:16:42;;;;;;;3.62;1.62;;;24.70;75.90;;;;;;10968920;32;20038;-71
2023/06/05 15:22:47;;;;;;;1.98;0.93;;;24.60;75.70;;;;;;10969695;32;20027;-70
2023/06/05 15:28:49;;;;;;;1.25;0.75;;;24.60;76.00;;;;;;10957179;27;20027;-71
2023/06/05 15:34:51;;;;;;;0.62;0.40;;;24.50;76.90;;;;;;10945231;32;20022;-71
2023/06/05 15:40:54;;;;;;;1.77;1.12;;;24.50;76.10;;;;;;10945912;32;20348;-70
2023/06/05 15:46:57;;;;;;;1.20;0.68;;;24.50;76.20;;;;;;10944834;32;20042;-71
2023/06/05 15:53:00;;;;;;;2.40;1.20;;;24.40;76.70;;;;;;10945343;32;20031;-71
2023/06/05 15:59:03;;;;;;;1.65;1.12;;;24.30;77.50;;;;;;10943497;32;20045;-72
2023/06/05 16:05:06;;;;;;;1.62;0.93;;;24.30;78.10;;;;;;10942515;32;20027;-70
2023/06/05 16:11:09;;;;;;;3.22;1.08;;;24.30;78.30;;;;;;10943214;32;20062;-71
2023/06/05 16:17:11;;;;;;;3.03;1.30;;;24.30;78.10;;;;;;10932590;32;20312;-70
2023/06/05 16:23:13;;;;;;;1.83;0.98;;;24.30;77.70;;;;;;10944918;32;20042;-70
2023/06/05 16:29:15;;;;;;;1.20;1.08;;;24.20;77.30;;;;;;10943382;32;20015;-71
2023/06/05 16:35:19;;;;;;;2.15;1.40;;;24.20;77.40;;;;;;10928837;32;20034;-70
2023/06/05 16:41:21;;;;;;;5.15;1.20;;;24.10;77.90;;;;;;10944211;32;20313;-71
2023/06/05 16:47:24;;;;;;;2.10;1.25;;;24.10;78.10;;;;;;10942908;32;20077;-71
2023/06/05 16:53:27;;;;;;;1.65;1.27;;;24.10;78.50;;;;;;10944241;32;20019;-71
2023/06/05 16:59:32;;;;;;;2.83;1.48;;;24.10;78.90;;;;;;10943885;32;20011;-69
2023/06/05 17:05:35;;;;;;;1.45;1.00;;;24.00;78.90;;;;;;10928245;32;20332;-70
2023/06/05 17:11:37;;;;;;;1.35;1.10;;;24.00;78.90;;;;;;10943153;32;20061;-71
2023/06/05 17:17:41;;;;;;;2.00;1.40;;;24.00;78.80;;;;;;10941176;32;20412;-71
2023/06/05 17:23:44;;;;;;;2.45;1.25;;;24.00;78.00;;;;;;10942667;32;20133;-73
2023/06/05 17:29:46;;;;;;;2.05;1.15;;;23.80;78.40;;;;;;10942096;32;20014;-70
2023/06/05 17:35:48;;;;;;;1.37;1.00;;;23.80;78.30;;;;;;10929082;32;20385;-71
2023/06/05 17:41:50;;;;;;;0.85;0.75;;;23.80;78.40;;;;;;10933606;32;20057;-71
2023/06/05 17:47:52;;;;;;;1.52;0.93;;;23.80;78.70;;;;;;10940304;32;20065;-71
2023/06/05 17:53:54;;;;;;;1.55;0.90;;;23.80;79.00;;;;;;10954057;32;20050;-71
2023/06/05 17:59:56;;;;;;;5.28;1.30;;;23.80;79.10;;;;;;10941536;32;20015;-71
2023/06/05 18:05:59;;;;;;;1.85;0.90;;;23.80;79.30;;;;;;10936556;32;20386;-72
2023/06/05 18:12:01;;;;;;;1.12;0.90;;;23.70;79.40;;;;;;10940910;32;20023;-72
2023/06/05 18:18:03;;;;;;;3.35;1.52;;;23.50;79.50;;;;;;10951382;32;20018;-72
2023/06/05 18:24:05;;;;;;;3.45;1.02;;;23.40;79.90;;;;;;10941988;32;20023;-71
2023/06/05 18:30:08;;;;;;;1.23;0.60;;;23.50;80.00;;;;;;10952435;32;20023;-71
2023/06/05 18:36:11;;;;;;;0.50;0.50;;;23.40;80.10;;;;;;10951594;32;20019;-70
2023/06/05 18:42:13;;;;;;;0.45;0.45;;;23.40;80.20;;;;;;10954455;32;20038;-71
2023/06/05 18:48:19;;;;;;;0.80;0.70;;;23.30;80.30;;;;;;10954469;32;20015;-71
2023/06/05 18:54:23;;;;;;;1.50;0.80;;;23.30;80.30;;;;;;10931925;32;20030;-71
2023/06/05 19:00:45;;;;;;;0.62;0.62;;;23.30;80.40;;;;;;10933234;32;20310;-71
2023/06/05 19:06:47;;;;;;;0.85;0.68;;;23.30;80.50;;;;;;10947928;32;20045;-71
2023/06/05 19:12:49;;;;;;;1.00;0.70;;;23.30;80.70;;;;;;10944606;32;20057;-72
2023/06/05 19:19:05;;;;;;;0.98;0.60;;;23.30;80.80;;;;;;10943577;32;20011;-73
2023/06/05 19:25:08;;;;;;;0.88;0.55;;;23.20;80.90;;;;;;10946382;32;20341;-74
2023/06/05 19:31:11;;;;;;;1.33;0.98;;;23.20;81.20;;;;;;10934399;32;20369;-73
2023/06/05 19:37:14;;;;;;;1.45;0.73;;;23.10;81.40;;;;;;10945514;32;20019;-73
2023/06/05 19:43:16;;;;;;;3.53;0.80;;;23.10;81.30;;;;;;10945802;32;20019;-73
2023/06/05 19:49:19;;;;;;;1.23;0.85;;;23.00;81.40;;;;;;10945430;32;20019;-73
2023/06/05 19:55:21;;;;;;;1.75;0.88;;;23.10;81.40;;;;;;10945829;32;20023;-72
2023/06/05 20:01:25;;;;;;;2.15;0.98;;;23.00;81.50;;;;;;10945735;32;20313;-72
2023/06/05 20:07:27;;;;;;;2.00;0.90;;;23.00;81.70;;;;;;10916877;32;20073;-72
2023/06/05 20:13:30;;;;;;;1.23;0.80;;;22.90;81.90;;;;;;10945071;32;20024;-72
2023/06/05 20:19:33;;;;;;;1.23;0.60;;;22.90;82.30;;;;;;10918312;32;20022;-72
2023/06/05 20:25:35;;;;;;;1.37;0.80;;;22.90;82.40;;;;;;10930919;32;20053;-73
2023/06/05 20:31:37;;;;;;;2.58;1.23;;;22.90;82.40;;;;;;10944518;32;20007;-73
2023/06/05 20:37:39;;;;;;;1.45;0.98;;;22.90;82.30;;;;;;10929977;32;20062;-73
2023/06/05 20:43:45;;;;;;;1.00;0.93;;;22.80;82.40;;;;;;10930053;32;20045;-73
2023/06/05 20:49:47;;;;;;;1.42;0.80;;;22.80;82.20;;;;;;10931134;32;20023;-74
2023/06/05 20:55:49;;;;;;;3.05;1.77;;;22.80;82.10;;;;;;10940232;32;20057;-74
2023/06/05 21:01:51;;;;;;;2.30;1.42;;;22.80;82.00;;;;;;10929218;32;20034;-73
2023/06/05 21:07:53;;;;;;;2.35;1.08;;;22.80;82.00;;;;;;10943239;32;20018;-73
2023/06/05 21:13:55;;;;;;;2.87;1.17;;;22.80;82.00;;;;;;10940873;32;20045;-73
2023/06/05 21:19:57;;;;;;;2.00;1.70;;;22.80;82.00;;;;;;10942108;32;20341;-73
2023/06/05 21:25:59;;;;;;;1.65;1.30;;;22.80;82.30;;;;;;10942668;32;20027;-73
2023/06/05 21:32:01;;;;;;;2.03;1.45;;;22.70;82.70;;;;;;10929472;32;20026;-73
2023/06/05 21:38:03;;;;;;;3.35;1.73;;;22.70;82.60;;;;;;10942576;32;20018;-73
2023/06/05 21:44:05;;;;;;;4.35;1.23;;;22.70;82.70;;;;;;10942355;32;20373;-74
2023/06/05 21:50:07;;;;;;;1.80;1.15;;;22.60;82.90;;;;;;10942340;32;20435;-72
2023/06/05 21:56:09;;;;;;;3.37;1.52;;;22.60;83.00;;;;;;10941995;32;20041;-72
2023/06/05 22:02:12;;;;;;;1.92;1.42;;;22.40;83.00;;;;;;10942592;32;20305;-73
2023/06/05 22:08:13;;;;;;;2.92;1.62;;;22.40;83.20;;;;;;10927812;32;20038;-72
2023/06/05 22:14:17;;;;;;;3.45;2.12;;;22.30;83.50;;;;;;10942253;32;20027;-73
2023/06/05 22:20:19;;;;;;;5.22;3.08;;;22.30;83.50;;;;;;10938307;32;20085;-74
2023/06/05 22:26:21;;;;;;;4.28;2.37;;;22.30;83.50;;;;;;10941947;32;20434;-72
2023/06/05 22:32:24;;;;;;;1.70;1.37;;;22.10;83.50;;;;;;10949194;32;20027;-71
2023/06/05 22:38:27;;;;;;;4.93;2.50;;;22.00;83.70;;;;;;10948638;32;20398;-73
2023/06/05 22:44:30;;;;;;;3.40;2.22;;;22.10;83.60;;;;;;10947673;32;20019;-71
2023/06/05 22:50:36;;;;;;;4.60;2.22;;;22.00;83.70;;;;;;10948506;32;20045;-72
2023/06/05 22:56:39;;;;;;;2.95;2.12;;;22.00;83.70;;;;;;10945060;32;20019;-71
2023/06/05 23:02:41;;;;;;;2.10;1.20;;;22.00;83.70;;;;;;10943026;32;20038;-72
2023/06/05 23:08:45;;;;;;;4.45;1.50;;;22.10;83.50;;;;;;10946805;32;20011;-72
2023/06/05 23:14:47;;;;;;;2.72;1.25;;;22.00;83.80;;;;;;10946502;32;20018;-72
2023/06/05 23:20:49;;;;;;;1.58;1.48;;;22.10;83.80;;;;;;10946359;32;20011;-71
2023/06/05 23:26:56;;;;;;;2.75;1.55;;;22.20;83.70;;;;;;10573083;27;11920703;-71
2023/06/05 23:32:59;;;;;;;1.87;1.57;;;22.20;83.70;;;;;;10943203;32;20337;-71
2023/06/05 23:39:01;;;;;;;2.10;1.37;;;22.20;83.70;;;;;;10942414;32;20015;-71
2023/06/05 23:45:04;;;;;;;3.20;1.92;;;22.10;83.80;;;;;;10942884;32;20030;-71
2023/06/05 23:51:06;;;;;;;3.45;1.75;;;22.20;83.80;;;;;;10942229;32;20015;-71
2023/06/05 23:57:08;;;;;;;2.78;1.60;;;22.10;83.90;;;;;;10919253;32;20393;-71
